sensor_id;sensor_type;location;lat;lon;timestamp;temperature;humidity
9941;DHT22;5009;50.656;7.188;2023-05-10T03:36:48;14.30;99.90
9941;DHT22;5009;50.656;7.188;2023-05-10T03:39:13;14.30;99.90
9941;DHT22;5009;50.656;7.188;2023-05-10T03:41:39;14.30;99.90
9941;DHT22;5009;50.656;7.188;2023-05-10T03:44:04;14.30;99.90
9941;DHT22;5009;50.656;7.188;2023-05-10T03:46:30;14.30;99.90
9941;DHT22;5009;50.656;7.188;2023-05-10T03:48:56;14.30;99.90
9941;DHT22;5009;50.656;7.188;2023-05-10T03:51:22;14.30;99.90
9941;DHT22;5009;50.656;7.188;2023-05-10T03:53:47;14.30;99.90
9941;DHT22;5009;50.656;7.188;2023-05-10T03:56:13;14.30;99.90
9941;DHT22;5009;50.656;7.188;2023-05-10T03:58:38;14.40;99.90
9941;DHT22;5009;50.656;7.188;2023-05-10T04:01:04;14.40;99.90
9941;DHT22;5009;50.656;7.188;2023-05-10T04:03:30;14.40;99.90
9941;DHT22;5009;50.656;7.188;2023-05-10T04:06:02;14.30;99.90
9941;DHT22;5009;50.656;7.188;2023-05-10T04:08:27;14.40;99.90
9941;DHT22;5009;50.656;7.188;2023-05-10T04:10:53;14.40;99.90
9941;DHT22;5009;50.656;7.188;2023-05-10T04:13:19;14.50;99.90
9941;DHT22;5009;50.656;7.188;2023-05-10T04:15:44;14.50;99.90
9941;DHT22;5009;50.656;7.188;2023-05-10T04:18:10;14.50;99.90
9941;DHT22;5009;50.656;7.188;2023-05-10T04:20:36;14.40;99.90
9941;DHT22;5009;50.656;7.188;2023-05-10T04:23:02;14.50;99.90
9941;DHT22;5009;50.656;7.188;2023-05-10T04:25:28;14.40;99.90
9941;DHT22;5009;50.656;7.188;2023-05-10T04:27:53;14.40;99.90
9941;DHT22;5009;50.656;7.188;2023-05-10T04:30:19;14.40;99.90
9941;DHT22;5009;50.656;7.188;2023-05-10T04:32:44;14.50;99.90
9941;DHT22;5009;50.656;7.188;2023-05-10T04:35:10;14.50;99.90
9941;DHT22;5009;50.656;7.188;2023-05-10T04:37:36;14.50;99.90
9941;DHT22;5009;50.656;7.188;2023-05-10T04:40:02;14.50;99.90
9941;DHT22;5009;50.656;7.188;2023-05-10T04:42:28;14.40;99.90
9941;DHT22;5009;50.656;7.188;2023-05-10T04:44:54;14.30;99.90
9941;DHT22;5009;50.656;7.188;2023-05-10T04:47:20;14.30;99.90
9941;DHT22;5009;50.656;7.188;2023-05-10T04:49:45;14.30;99.90
9941;DHT22;5009;50.656;7.188;2023-05-10T04:52:11;14.40;99.90
9941;DHT22;5009;50.656;7.188;2023-05-10T04:54:36;14.40;99.90
9941;DHT22;5009;50.656;7.188;2023-05-10T04:57:02;14.40;99.90
9941;DHT22;5009;50.656;7.188;2023-05-10T04:59:28;14.40;99.90
9941;DHT22;5009;50.656;7.188;2023-05-10T05:01:53;14.40;99.90
9941;DHT22;5009;50.656;7.188;2023-05-10T05:04:19;14.40;99.90
9941;DHT22;5009;50.656;7.188;2023-05-10T05:06:44;14.50;99.90
9941;DHT22;5009;50.656;7.188;2023-05-10T05:09:10;14.40;99.90
9941;DHT22;5009;50.656;7.188;2023-05-10T05:11:35;14.40;99.90
9941;DHT22;5009;50.656;7.188;2023-05-10T05:14:01;14.50;99.90
9941;DHT22;5009;50.656;7.188;2023-05-10T05:16:27;14.50;99.90
9941;DHT22;5009;50.656;7.188;2023-05-10T05:18:52;14.50;99.90
9941;DHT22;5009;50.656;7.188;2023-05-10T05:21:19;14.60;99.90
9941;DHT22;5009;50.656;7.188;2023-05-10T05:23:45;14.50;99.90
9941;DHT22;5009;50.656;7.188;2023-05-10T05:26:11;14.40;99.90
9941;DHT22;5009;50.656;7.188;2023-05-10T05:28:37;14.50;99.90
9941;DHT22;5009;50.656;7.188;2023-05-10T05:31:04;14.40;99.90
9941;DHT22;5009;50.656;7.188;2023-05-10T05:33:31;14.40;99.90
9941;DHT22;5009;50.656;7.188;2023-05-10T05:35:56;14.50;99.90
9941;DHT22;5009;50.656;7.188;2023-05-10T05:38:22;14.40;99.90
9941;DHT22;5009;50.656;7.188;2023-05-10T05:40:47;14.50;99.90
9941;DHT22;5009;50.656;7.188;2023-05-10T05:43:13;14.50;99.90
9941;DHT22;5009;50.656;7.188;2023-05-10T05:45:39;14.50;99.90
9941;DHT22;5009;50.656;7.188;2023-05-10T05:48:04;14.40;99.90
9941;DHT22;5009;50.656;7.188;2023-05-10T05:50:30;14.50;99.90
9941;DHT22;5009;50.656;7.188;2023-05-10T05:52:55;14.50;99.90
9941;DHT22;5009;50.656;7.188;2023-05-10T05:55:22;14.40;99.90
9941;DHT22;5009;50.656;7.188;2023-05-10T05:57:49;14.50;99.90
9941;DHT22;5009;50.656;7.188;2023-05-10T06:00:15;14.50;99.90
9941;DHT22;5009;50.656;7.188;2023-05-10T06:02:41;14.60;99.90
9941;DHT22;5009;50.656;7.188;2023-05-10T06:05:07;14.60;99.90
9941;DHT22;5009;50.656;7.188;2023-05-10T06:07:33;14.60;99.90
9941;DHT22;5009;50.656;7.188;2023-05-10T06:09:58;14.70;99.90
9941;DHT22;5009;50.656;7.188;2023-05-10T06:12:24;14.70;99.90
9941;DHT22;5009;50.656;7.188;2023-05-10T06:14:49;14.80;99.90
9941;DHT22;5009;50.656;7.188;2023-05-10T06:17:15;14.90;99.90
9941;DHT22;5009;50.656;7.188;2023-05-10T06:19:40;14.80;99.90
9941;DHT22;5009;50.656;7.188;2023-05-10T06:22:06;14.90;99.90
9941;DHT22;5009;50.656;7.188;2023-05-10T06:24:31;15.00;99.90
9941;DHT22;5009;50.656;7.188;2023-05-10T06:26:57;15.20;99.90
9941;DHT22;5009;50.656;7.188;2023-05-10T06:29:25;15.30;99.90
9941;DHT22;5009;50.656;7.188;2023-05-10T06:31:50;15.30;99.90
9941;DHT22;5009;50.656;7.188;2023-05-10T06:34:16;15.40;99.90
9941;DHT22;5009;50.656;7.188;2023-05-10T06:36:41;15.50;99.90
9941;DHT22;5009;50.656;7.188;2023-05-10T06:39:07;15.60;99.90
9941;DHT22;5009;50.656;7.188;2023-05-10T06:41:33;15.70;99.90
9941;DHT22;5009;50.656;7.188;2023-05-10T06:43:58;15.90;99.90
9941;DHT22;5009;50.656;7.188;2023-05-10T06:46:24;15.90;99.90
9941;DHT22;5009;50.656;7.188;2023-05-10T06:48:49;15.90;99.90
9941;DHT22;5009;50.656;7.188;2023-05-10T06:51:15;16.00;99.90
9941;DHT22;5009;50.656;7.188;2023-05-10T06:53:40;16.00;99.90
9941;DHT22;5009;50.656;7.188;2023-05-10T06:56:06;16.10;99.90
9941;DHT22;5009;50.656;7.188;2023-05-10T06:58:32;16.10;99.90
9941;DHT22;5009;50.656;7.188;2023-05-10T07:01:04;16.10;99.90
9941;DHT22;5009;50.656;7.188;2023-05-10T07:03:31;16.10;99.90
9941;DHT22;5009;50.656;7.188;2023-05-10T07:06:03;16.10;99.90
9941;DHT22;5009;50.656;7.188;2023-05-10T07:08:32;16.20;99.90
9941;DHT22;5009;50.656;7.188;2023-05-10T07:11:02;16.20;99.90
9941;DHT22;5009;50.656;7.188;2023-05-10T07:13:31;16.20;99.90
9941;DHT22;5009;50.656;7.188;2023-05-10T07:15:57;16.20;99.90
9941;DHT22;5009;50.656;7.188;2023-05-10T07:18:23;16.30;99.90
9941;DHT22;5009;50.656;7.188;2023-05-10T07:20:49;16.30;99.90
9941;DHT22;5009;50.656;7.188;2023-05-10T07:23:14;16.30;99.90
9941;DHT22;5009;50.656;7.188;2023-05-10T07:25:40;16.30;99.90
9941;DHT22;5009;50.656;7.188;2023-05-10T07:28:05;16.30;99.90
9941;DHT22;5009;50.656;7.188;2023-05-10T07:30:31;16.30;99.90
9941;DHT22;5009;50.656;7.188;2023-05-10T07:32:57;16.30;99.90
9941;DHT22;5009;50.656;7.188;2023-05-10T07:35:22;16.30;99.90
9941;DHT22;5009;50.656;7.188;2023-05-10T07:37:48;16.30;99.90
9941;DHT22;5009;50.656;7.188;2023-05-10T07:40:13;16.40;99.90
9941;DHT22;5009;50.656;7.188;2023-05-10T07:42:39;16.40;99.90
9941;DHT22;5009;50.656;7.188;2023-05-10T07:45:05;16.40;99.90
9941;DHT22;5009;50.656;7.188;2023-05-10T07:47:30;16.40;99.90
9941;DHT22;5009;50.656;7.188;2023-05-10T07:49:56;16.40;99.90
9941;DHT22;5009;50.656;7.188;2023-05-10T07:52:21;16.40;99.90
9941;DHT22;5009;50.656;7.188;2023-05-10T07:54:47;16.40;99.90
9941;DHT22;5009;50.656;7.188;2023-05-10T07:57:13;16.40;99.90
9941;DHT22;5009;50.656;7.188;2023-05-10T07:59:40;16.40;99.90
9941;DHT22;5009;50.656;7.188;2023-05-10T08:02:06;16.40;99.90
9941;DHT22;5009;50.656;7.188;2023-05-10T08:04:32;16.30;99.90
9941;DHT22;5009;50.656;7.188;2023-05-10T08:06:57;16.50;99.90
9941;DHT22;5009;50.656;7.188;2023-05-10T08:09:23;16.60;99.90
9941;DHT22;5009;50.656;7.188;2023-05-10T08:11:49;16.90;99.90
9941;DHT22;5009;50.656;7.188;2023-05-10T08:14:16;17.40;99.90
9941;DHT22;5009;50.656;7.188;2023-05-10T08:16:41;17.90;99.90
9941;DHT22;5009;50.656;7.188;2023-05-10T08:19:07;18.20;99.90
9941;DHT22;5009;50.656;7.188;2023-05-10T08:21:33;18.40;99.90
9941;DHT22;5009;50.656;7.188;2023-05-10T08:23:58;18.40;99.90
9941;DHT22;5009;50.656;7.188;2023-05-10T08:26:24;18.30;99.90
9941;DHT22;5009;50.656;7.188;2023-05-10T08:28:50;18.20;99.90
9941;DHT22;5009;50.656;7.188;2023-05-10T08:31:15;18.20;99.90
9941;DHT22;5009;50.656;7.188;2023-05-10T08:33:41;18.10;99.90
9941;DHT22;5009;50.656;7.188;2023-05-10T08:36:06;18.10;99.90
9941;DHT22;5009;50.656;7.188;2023-05-10T08:38:32;18.00;99.90
9941;DHT22;5009;50.656;7.188;2023-05-10T08:40:58;17.90;99.90
9941;DHT22;5009;50.656;7.188;2023-05-10T08:43:28;17.90;99.90
9941;DHT22;5009;50.656;7.188;2023-05-10T08:46:00;17.40;99.90
9941;DHT22;5009;50.656;7.188;2023-05-10T08:48:27;17.20;99.90
9941;DHT22;5009;50.656;7.188;2023-05-10T08:50:54;17.20;99.90
9941;DHT22;5009;50.656;7.188;2023-05-10T08:53:21;17.20;99.90
9941;DHT22;5009;50.656;7.188;2023-05-10T08:55:49;16.90;99.90
9941;DHT22;5009;50.656;7.188;2023-05-10T08:58:15;16.70;99.90
9941;DHT22;5009;50.656;7.188;2023-05-10T09:00:41;16.80;99.90
9941;DHT22;5009;50.656;7.188;2023-05-10T09:03:06;16.80;99.90
9941;DHT22;5009;50.656;7.188;2023-05-10T09:05:32;16.80;99.90
9941;DHT22;5009;50.656;7.188;2023-05-10T09:07:58;16.70;99.90
9941;DHT22;5009;50.656;7.188;2023-05-10T09:10:26;16.60;99.90
9941;DHT22;5009;50.656;7.188;2023-05-10T09:12:53;16.50;99.90
9941;DHT22;5009;50.656;7.188;2023-05-10T09:15:21;16.40;99.90
9941;DHT22;5009;50.656;7.188;2023-05-10T09:17:47;16.30;99.90
9941;DHT22;5009;50.656;7.188;2023-05-10T09:20:14;16.30;99.90
9941;DHT22;5009;50.656;7.188;2023-05-10T09:22:40;16.20;99.90
9941;DHT22;5009;50.656;7.188;2023-05-10T09:25:09;16.20;99.90
9941;DHT22;5009;50.656;7.188;2023-05-10T09:27:36;16.30;99.90
9941;DHT22;5009;50.656;7.188;2023-05-10T09:30:03;16.20;99.90
9941;DHT22;5009;50.656;7.188;2023-05-10T09:32:44;16.20;99.90
9941;DHT22;5009;50.656;7.188;2023-05-10T09:37:36;16.30;99.90
9941;DHT22;5009;50.656;7.188;2023-05-10T09:40:05;16.30;99.90
9941;DHT22;5009;50.656;7.188;2023-05-10T09:42:33;16.40;99.90
9941;DHT22;5009;50.656;7.188;2023-05-10T09:45:06;16.50;99.90
9941;DHT22;5009;50.656;7.188;2023-05-10T09:47:33;16.50;99.90
9941;DHT22;5009;50.656;7.188;2023-05-10T09:49:59;16.60;99.90
9941;DHT22;5009;50.656;7.188;2023-05-10T09:52:50;16.70;99.90
9941;DHT22;5009;50.656;7.188;2023-05-10T09:55:16;16.80;99.90
9941;DHT22;5009;50.656;7.188;2023-05-10T09:57:42;16.80;99.90
9941;DHT22;5009;50.656;7.188;2023-05-10T10:00:08;17.00;99.90
9941;DHT22;5009;50.656;7.188;2023-05-10T10:02:35;17.00;99.90
9941;DHT22;5009;50.656;7.188;2023-05-10T10:05:02;16.90;99.90
9941;DHT22;5009;50.656;7.188;2023-05-10T10:07:31;16.90;99.90
9941;DHT22;5009;50.656;7.188;2023-05-10T10:09:58;16.90;99.90
9941;DHT22;5009;50.656;7.188;2023-05-10T10:12:25;16.90;99.90
9941;DHT22;5009;50.656;7.188;2023-05-10T10:14:51;16.90;99.90
9941;DHT22;5009;50.656;7.188;2023-05-10T10:17:17;17.10;99.90
9941;DHT22;5009;50.656;7.188;2023-05-10T10:19:42;17.10;99.90
9941;DHT22;5009;50.656;7.188;2023-05-10T10:22:08;17.20;99.90
9941;DHT22;5009;50.656;7.188;2023-05-10T10:24:38;17.20;99.90
9941;DHT22;5009;50.656;7.188;2023-05-10T10:27:21;17.50;99.90
9941;DHT22;5009;50.656;7.188;2023-05-10T10:30:06;17.80;99.90
9941;DHT22;5009;50.656;7.188;2023-05-10T10:35:40;17.80;99.90
9941;DHT22;5009;50.656;7.188;2023-05-10T10:38:08;17.80;99.90
9941;DHT22;5009;50.656;7.188;2023-05-10T10:40:34;17.80;99.90
9941;DHT22;5009;50.656;7.188;2023-05-10T10:43:25;17.80;99.90
9941;DHT22;5009;50.656;7.188;2023-05-10T10:46:13;17.70;99.90
9941;DHT22;5009;50.656;7.188;2023-05-10T10:48:41;17.50;99.90
9941;DHT22;5009;50.656;7.188;2023-05-10T10:51:06;17.40;99.90
9941;DHT22;5009;50.656;7.188;2023-05-10T10:53:32;17.40;99.90
9941;DHT22;5009;50.656;7.188;2023-05-10T10:56:09;17.40;99.90
9941;DHT22;5009;50.656;7.188;2023-05-10T10:58:37;17.40;99.90
9941;DHT22;5009;50.656;7.188;2023-05-10T11:01:17;17.50;99.90
9941;DHT22;5009;50.656;7.188;2023-05-10T11:04:16;17.70;99.90
9941;DHT22;5009;50.656;7.188;2023-05-10T11:06:42;18.00;99.90
9941;DHT22;5009;50.656;7.188;2023-05-10T11:09:09;18.20;99.90
9941;DHT22;5009;50.656;7.188;2023-05-10T11:11:36;18.40;99.90
9941;DHT22;5009;50.656;7.188;2023-05-10T11:14:06;18.40;99.90
9941;DHT22;5009;50.656;7.188;2023-05-10T11:16:42;18.40;99.90
9941;DHT22;5009;50.656;7.188;2023-05-10T11:19:13;18.30;99.90
9941;DHT22;5009;50.656;7.188;2023-05-10T11:22:11;18.20;99.90
9941;DHT22;5009;50.656;7.188;2023-05-10T11:24:38;18.10;99.90
9941;DHT22;5009;50.656;7.188;2023-05-10T11:27:04;18.00;99.90
9941;DHT22;5009;50.656;7.188;2023-05-10T11:29:30;18.00;99.90
9941;DHT22;5009;50.656;7.188;2023-05-10T11:31:59;17.90;99.90
9941;DHT22;5009;50.656;7.188;2023-05-10T11:36:53;18.00;99.90
9941;DHT22;5009;50.656;7.188;2023-05-10T11:39:20;18.00;99.90
9941;DHT22;5009;50.656;7.188;2023-05-10T11:41:49;18.10;99.90
9941;DHT22;5009;50.656;7.188;2023-05-10T11:44:15;18.30;99.90
9941;DHT22;5009;50.656;7.188;2023-05-10T11:46:41;18.50;99.90
9941;DHT22;5009;50.656;7.188;2023-05-10T11:49:07;18.70;99.90
9941;DHT22;5009;50.656;7.188;2023-05-10T11:51:34;18.90;99.90
9941;DHT22;5009;50.656;7.188;2023-05-10T11:54:08;19.10;99.90
9941;DHT22;5009;50.656;7.188;2023-05-10T11:56:34;19.30;99.90
9941;DHT22;5009;50.656;7.188;2023-05-10T11:59:00;19.40;99.90
9941;DHT22;5009;50.656;7.188;2023-05-10T12:01:28;19.50;99.90
9941;DHT22;5009;50.656;7.188;2023-05-10T12:03:55;19.40;99.90
9941;DHT22;5009;50.656;7.188;2023-05-10T12:06:27;19.30;99.90
9941;DHT22;5009;50.656;7.188;2023-05-10T12:08:54;19.30;99.90
9941;DHT22;5009;50.656;7.188;2023-05-10T12:11:20;19.20;99.90
9941;DHT22;5009;50.656;7.188;2023-05-10T12:13:49;19.20;99.90
9941;DHT22;5009;50.656;7.188;2023-05-10T12:16:17;19.10;99.90
9941;DHT22;5009;50.656;7.188;2023-05-10T12:18:43;19.10;99.90
9941;DHT22;5009;50.656;7.188;2023-05-10T12:21:12;19.00;99.90
9941;DHT22;5009;50.656;7.188;2023-05-10T12:23:38;18.80;99.90
9941;DHT22;5009;50.656;7.188;2023-05-10T12:26:05;18.70;99.90
9941;DHT22;5009;50.656;7.188;2023-05-10T12:28:32;18.60;99.90
9941;DHT22;5009;50.656;7.188;2023-05-10T12:31:01;18.50;99.90
9941;DHT22;5009;50.656;7.188;2023-05-10T12:33:27;18.50;99.90
9941;DHT22;5009;50.656;7.188;2023-05-10T12:36:00;18.40;99.90
9941;DHT22;5009;50.656;7.188;2023-05-10T12:38:29;18.40;99.90
9941;DHT22;5009;50.656;7.188;2023-05-10T12:41:04;18.40;99.90
9941;DHT22;5009;50.656;7.188;2023-05-10T12:43:30;18.40;99.90
9941;DHT22;5009;50.656;7.188;2023-05-10T12:45:56;18.30;99.90
9941;DHT22;5009;50.656;7.188;2023-05-10T12:48:22;18.30;99.90
9941;DHT22;5009;50.656;7.188;2023-05-10T12:50:48;18.30;99.90
9941;DHT22;5009;50.656;7.188;2023-05-10T12:53:14;18.30;99.90
9941;DHT22;5009;50.656;7.188;2023-05-10T12:55:41;18.20;99.90
9941;DHT22;5009;50.656;7.188;2023-05-10T12:58:07;18.20;99.90
9941;DHT22;5009;50.656;7.188;2023-05-10T13:00:32;18.20;99.90
9941;DHT22;5009;50.656;7.188;2023-05-10T13:02:58;18.20;99.90
9941;DHT22;5009;50.656;7.188;2023-05-10T13:05:23;18.30;99.90
9941;DHT22;5009;50.656;7.188;2023-05-10T13:07:50;18.30;99.90
9941;DHT22;5009;50.656;7.188;2023-05-10T13:10:23;18.20;99.90
9941;DHT22;5009;50.656;7.188;2023-05-10T13:12:49;18.30;99.90
9941;DHT22;5009;50.656;7.188;2023-05-10T13:15:14;18.20;99.90
9941;DHT22;5009;50.656;7.188;2023-05-10T13:17:40;18.20;99.90
9941;DHT22;5009;50.656;7.188;2023-05-10T13:20:08;18.20;99.90
9941;DHT22;5009;50.656;7.188;2023-05-10T13:22:35;18.20;99.90
9941;DHT22;5009;50.656;7.188;2023-05-10T13:25:01;18.20;99.90
9941;DHT22;5009;50.656;7.188;2023-05-10T13:27:27;18.10;99.90
9941;DHT22;5009;50.656;7.188;2023-05-10T13:29:53;18.10;99.90
9941;DHT22;5009;50.656;7.188;2023-05-10T13:32:20;18.20;99.90
9941;DHT22;5009;50.656;7.188;2023-05-10T13:34:47;18.30;99.90
9941;DHT22;5009;50.656;7.188;2023-05-10T13:37:12;18.40;99.90
9941;DHT22;5009;50.656;7.188;2023-05-10T13:39:38;18.40;99.90
9941;DHT22;5009;50.656;7.188;2023-05-10T13:42:04;18.50;99.90
9941;DHT22;5009;50.656;7.188;2023-05-10T13:44:30;18.40;99.90
9941;DHT22;5009;50.656;7.188;2023-05-10T13:46:56;18.40;99.90
9941;DHT22;5009;50.656;7.188;2023-05-10T13:49:23;18.50;99.90
9941;DHT22;5009;50.656;7.188;2023-05-10T13:51:48;18.40;99.90
9941;DHT22;5009;50.656;7.188;2023-05-10T13:54:14;18.40;99.90
9941;DHT22;5009;50.656;7.188;2023-05-10T13:56:41;18.30;99.90
9941;DHT22;5009;50.656;7.188;2023-05-10T13:59:08;18.20;99.90
9941;DHT22;5009;50.656;7.188;2023-05-10T14:01:34;18.10;99.90
9941;DHT22;5009;50.656;7.188;2023-05-10T14:04:00;18.10;99.90
9941;DHT22;5009;50.656;7.188;2023-05-10T14:06:25;18.00;99.90
9941;DHT22;5009;50.656;7.188;2023-05-10T14:08:53;17.90;99.90
9941;DHT22;5009;50.656;7.188;2023-05-10T14:11:19;17.70;99.90
9941;DHT22;5009;50.656;7.188;2023-05-10T14:13:45;17.60;99.90
9941;DHT22;5009;50.656;7.188;2023-05-10T14:16:10;17.50;99.90
9941;DHT22;5009;50.656;7.188;2023-05-10T14:18:37;17.30;99.90
9941;DHT22;5009;50.656;7.188;2023-05-10T14:21:05;17.10;99.90
9941;DHT22;5009;50.656;7.188;2023-05-10T14:23:31;16.80;99.90
9941;DHT22;5009;50.656;7.188;2023-05-10T14:25:57;16.60;99.90
9941;DHT22;5009;50.656;7.188;2023-05-10T14:28:23;16.70;99.90
9941;DHT22;5009;50.656;7.188;2023-05-10T14:30:49;16.60;99.90
9941;DHT22;5009;50.656;7.188;2023-05-10T14:33:16;16.50;99.90
9941;DHT22;5009;50.656;7.188;2023-05-10T14:35:42;16.60;99.90
9941;DHT22;5009;50.656;7.188;2023-05-10T14:38:09;16.70;99.90
9941;DHT22;5009;50.656;7.188;2023-05-10T14:40:36;16.50;99.90
9941;DHT22;5009;50.656;7.188;2023-05-10T14:43:01;16.40;99.90
9941;DHT22;5009;50.656;7.188;2023-05-10T14:45:27;16.40;99.90
9941;DHT22;5009;50.656;7.188;2023-05-10T14:47:52;16.30;99.90
9941;DHT22;5009;50.656;7.188;2023-05-10T14:50:18;16.50;99.90
9941;DHT22;5009;50.656;7.188;2023-05-10T14:52:44;16.70;99.90
9941;DHT22;5009;50.656;7.188;2023-05-10T14:55:10;16.70;99.90
9941;DHT22;5009;50.656;7.188;2023-05-10T14:57:35;16.60;99.90
9941;DHT22;5009;50.656;7.188;2023-05-10T15:00:02;16.70;99.90
9941;DHT22;5009;50.656;7.188;2023-05-10T15:02:29;16.90;99.90
9941;DHT22;5009;50.656;7.188;2023-05-10T15:04:54;17.20;99.90
9941;DHT22;5009;50.656;7.188;2023-05-10T15:07:20;17.10;99.90
9941;DHT22;5009;50.656;7.188;2023-05-10T15:09:45;17.10;99.90
9941;DHT22;5009;50.656;7.188;2023-05-10T15:12:11;17.10;99.90
9941;DHT22;5009;50.656;7.188;2023-05-10T15:14:37;17.20;99.90
9941;DHT22;5009;50.656;7.188;2023-05-10T15:17:04;17.10;99.90
9941;DHT22;5009;50.656;7.188;2023-05-10T15:19:29;17.10;99.90
9941;DHT22;5009;50.656;7.188;2023-05-10T15:21:55;17.40;99.90
9941;DHT22;5009;50.656;7.188;2023-05-10T15:24:21;17.30;99.90
9941;DHT22;5009;50.656;7.188;2023-05-10T15:26:47;17.20;99.90
9941;DHT22;5009;50.656;7.188;2023-05-10T15:29:13;17.20;99.90
9941;DHT22;5009;50.656;7.188;2023-05-10T15:31:49;17.30;99.90
9941;DHT22;5009;50.656;7.188;2023-05-10T15:34:15;17.00;99.90
9941;DHT22;5009;50.656;7.188;2023-05-10T15:36:41;17.00;99.90
9941;DHT22;5009;50.656;7.188;2023-05-10T15:39:07;17.20;99.90
9941;DHT22;5009;50.656;7.188;2023-05-10T15:41:34;17.40;99.90
9941;DHT22;5009;50.656;7.188;2023-05-10T15:44:00;17.40;99.90
9941;DHT22;5009;50.656;7.188;2023-05-10T15:46:29;17.40;99.90
9941;DHT22;5009;50.656;7.188;2023-05-10T15:48:56;17.40;99.90
9941;DHT22;5009;50.656;7.188;2023-05-10T15:51:22;17.50;99.90
9941;DHT22;5009;50.656;7.188;2023-05-10T15:53:47;17.50;99.90
9941;DHT22;5009;50.656;7.188;2023-05-10T15:56:13;17.40;99.90
9941;DHT22;5009;50.656;7.188;2023-05-10T15:58:40;17.40;99.90
9941;DHT22;5009;50.656;7.188;2023-05-10T16:01:05;17.30;99.90
9941;DHT22;5009;50.656;7.188;2023-05-10T16:03:32;17.40;99.90
9941;DHT22;5009;50.656;7.188;2023-05-10T16:05:58;17.40;99.90
9941;DHT22;5009;50.656;7.188;2023-05-10T16:08:23;17.10;99.90
9941;DHT22;5009;50.656;7.188;2023-05-10T16:10:52;17.10;99.90
9941;DHT22;5009;50.656;7.188;2023-05-10T16:13:18;17.30;99.90
9941;DHT22;5009;50.656;7.188;2023-05-10T16:15:43;17.40;99.90
9941;DHT22;5009;50.656;7.188;2023-05-10T16:18:09;17.50;99.90
9941;DHT22;5009;50.656;7.188;2023-05-10T16:20:35;17.50;99.90
9941;DHT22;5009;50.656;7.188;2023-05-10T16:23:05;17.60;99.90
9941;DHT22;5009;50.656;7.188;2023-05-10T16:25:32;17.70;99.90
9941;DHT22;5009;50.656;7.188;2023-05-10T16:27:58;17.50;99.90
9941;DHT22;5009;50.656;7.188;2023-05-10T16:30:25;17.50;99.90
9941;DHT22;5009;50.656;7.188;2023-05-10T16:32:52;17.50;99.90
9941;DHT22;5009;50.656;7.188;2023-05-10T16:35:18;17.60;99.90
9941;DHT22;5009;50.656;7.188;2023-05-10T16:37:43;17.40;99.90
9941;DHT22;5009;50.656;7.188;2023-05-10T16:40:10;17.50;99.90
9941;DHT22;5009;50.656;7.188;2023-05-10T16:42:36;17.60;99.90
9941;DHT22;5009;50.656;7.188;2023-05-10T16:45:02;17.60;99.90
9941;DHT22;5009;50.656;7.188;2023-05-10T16:47:32;17.60;99.90
9941;DHT22;5009;50.656;7.188;2023-05-10T16:49:59;17.50;99.90
9941;DHT22;5009;50.656;7.188;2023-05-10T16:52:26;17.50;99.90
9941;DHT22;5009;50.656;7.188;2023-05-10T16:54:53;17.50;99.90
9941;DHT22;5009;50.656;7.188;2023-05-10T16:57:19;17.50;99.90
9941;DHT22;5009;50.656;7.188;2023-05-10T16:59:45;17.50;99.90
9941;DHT22;5009;50.656;7.188;2023-05-10T17:02:11;17.50;99.90
9941;DHT22;5009;50.656;7.188;2023-05-10T17:04:36;17.60;99.90
9941;DHT22;5009;50.656;7.188;2023-05-10T17:07:02;17.50;99.90
9941;DHT22;5009;50.656;7.188;2023-05-10T17:09:27;17.60;99.90
9941;DHT22;5009;50.656;7.188;2023-05-10T17:11:53;17.60;99.90
9941;DHT22;5009;50.656;7.188;2023-05-10T17:14:19;17.60;99.90
9941;DHT22;5009;50.656;7.188;2023-05-10T17:16:44;17.60;99.90
9941;DHT22;5009;50.656;7.188;2023-05-10T17:19:12;17.50;99.90
9941;DHT22;5009;50.656;7.188;2023-05-10T17:21:37;17.50;99.90
9941;DHT22;5009;50.656;7.188;2023-05-10T17:24:03;17.50;99.90
9941;DHT22;5009;50.656;7.188;2023-05-10T17:26:29;17.40;99.90
9941;DHT22;5009;50.656;7.188;2023-05-10T17:28:54;17.40;99.90
9941;DHT22;5009;50.656;7.188;2023-05-10T17:31:20;17.30;99.90
9941;DHT22;5009;50.656;7.188;2023-05-10T17:33:46;17.30;99.90
9941;DHT22;5009;50.656;7.188;2023-05-10T17:36:11;17.20;99.90
9941;DHT22;5009;50.656;7.188;2023-05-10T17:38:37;17.20;99.90
9941;DHT22;5009;50.656;7.188;2023-05-10T17:41:03;17.10;99.90
9941;DHT22;5009;50.656;7.188;2023-05-10T17:43:28;17.00;99.90
9941;DHT22;5009;50.656;7.188;2023-05-10T17:45:54;17.00;99.90
9941;DHT22;5009;50.656;7.188;2023-05-10T17:48:19;17.00;99.90
9941;DHT22;5009;50.656;7.188;2023-05-10T17:50:45;17.00;99.90
9941;DHT22;5009;50.656;7.188;2023-05-10T17:53:11;17.00;99.90
9941;DHT22;5009;50.656;7.188;2023-05-10T17:55:39;16.90;99.90
9941;DHT22;5009;50.656;7.188;2023-05-10T17:58:06;16.90;99.90
9941;DHT22;5009;50.656;7.188;2023-05-10T18:00:32;16.90;99.90
9941;DHT22;5009;50.656;7.188;2023-05-10T18:02:57;16.90;99.90
9941;DHT22;5009;50.656;7.188;2023-05-10T18:05:23;16.80;99.90
9941;DHT22;5009;50.656;7.188;2023-05-10T18:08:15;16.80;99.90
9941;DHT22;5009;50.656;7.188;2023-05-10T18:10:46;16.80;99.90
9941;DHT22;5009;50.656;7.188;2023-05-10T18:13:12;16.80;99.90
9941;DHT22;5009;50.656;7.188;2023-05-10T18:15:37;16.70;99.90
9941;DHT22;5009;50.656;7.188;2023-05-10T18:18:03;16.60;99.90
9941;DHT22;5009;50.656;7.188;2023-05-10T18:20:30;16.60;99.90
9941;DHT22;5009;50.656;7.188;2023-05-10T18:22:56;16.60;99.90
9941;DHT22;5009;50.656;7.188;2023-05-10T18:25:24;16.60;99.90
9941;DHT22;5009;50.656;7.188;2023-05-10T18:27:50;16.50;99.90
9941;DHT22;5009;50.656;7.188;2023-05-10T18:30:49;16.50;99.90
9941;DHT22;5009;50.656;7.188;2023-05-10T18:33:15;16.40;99.90
9941;DHT22;5009;50.656;7.188;2023-05-10T18:35:41;16.40;99.90
9941;DHT22;5009;50.656;7.188;2023-05-10T18:38:06;16.30;99.90
9941;DHT22;5009;50.656;7.188;2023-05-10T18:40:34;16.30;99.90
9941;DHT22;5009;50.656;7.188;2023-05-10T18:43:00;16.30;99.90
9941;DHT22;5009;50.656;7.188;2023-05-10T18:45:25;16.20;99.90
9941;DHT22;5009;50.656;7.188;2023-05-10T18:47:51;16.20;99.90
9941;DHT22;5009;50.656;7.188;2023-05-10T18:50:16;16.20;99.90
9941;DHT22;5009;50.656;7.188;2023-05-10T18:52:44;16.10;99.90
9941;DHT22;5009;50.656;7.188;2023-05-10T18:55:09;16.10;99.90
9941;DHT22;5009;50.656;7.188;2023-05-10T18:57:35;15.90;99.90
9941;DHT22;5009;50.656;7.188;2023-05-10T19:00:07;15.80;99.90
9941;DHT22;5009;50.656;7.188;2023-05-10T19:02:38;15.80;99.90
9941;DHT22;5009;50.656;7.188;2023-05-10T19:05:04;15.80;99.90
9941;DHT22;5009;50.656;7.188;2023-05-10T19:07:30;15.80;99.90
9941;DHT22;5009;50.656;7.188;2023-05-10T19:09:56;15.80;99.90
9941;DHT22;5009;50.656;7.188;2023-05-10T19:12:21;15.80;99.90
9941;DHT22;5009;50.656;7.188;2023-05-10T19:14:47;15.70;99.90
9941;DHT22;5009;50.656;7.188;2023-05-10T19:17:13;15.70;99.90
9941;DHT22;5009;50.656;7.188;2023-05-10T19:19:39;15.70;99.90
9941;DHT22;5009;50.656;7.188;2023-05-10T19:22:05;15.70;99.90
9941;DHT22;5009;50.656;7.188;2023-05-10T19:24:32;15.60;99.90
9941;DHT22;5009;50.656;7.188;2023-05-10T19:27:00;15.50;99.90
9941;DHT22;5009;50.656;7.188;2023-05-10T19:29:26;15.50;99.90
9941;DHT22;5009;50.656;7.188;2023-05-10T19:31:51;15.50;99.90
9941;DHT22;5009;50.656;7.188;2023-05-10T19:34:18;15.50;99.90
9941;DHT22;5009;50.656;7.188;2023-05-10T19:36:45;15.50;99.90
9941;DHT22;5009;50.656;7.188;2023-05-10T19:39:11;15.40;99.90
9941;DHT22;5009;50.656;7.188;2023-05-10T19:41:37;15.40;99.90
9941;DHT22;5009;50.656;7.188;2023-05-10T19:44:03;15.30;99.90